KMIA/MIA METAR and TAF weather

Enter ICAO airport designator
Station Type Date Time Source
KMIA METAR 2019/12/09 21:53 UTC NOAA

KMIA 092153Z 11009KT 10SM SCT035 SCT065 SCT250 26/19 A3006 RMK AO2 SLP180 T02610194


Station Type Date Time Source
KMIA Decoded METAR 2019/12/09 21:53 UTC NOAA

MIAMI INTERNATIONAL AIRPORT , FL, United States (KMIA) 25-47N 080-19W 8M
Dec 09, 2019 - 04:53 PM EST / 2019.12.09 2153 UTC
Wind: from the ESE (110 degrees) at 10 MPH (9 KT):0
Visibility: 10 mile(s):0
Sky conditions: partly cloudy
Temperature: 79.0 F (26.1 C)
Dew Point: 66.9 F (19.4 C)
Relative Humidity: 66%
Pressure (altimeter): 30.06 in. Hg (1017 hPa)
ob: KMIA 092153Z 11009KT 10SM SCT035 SCT065 SCT250 26/19 A3006 RMK AO2 SLP180 T02610194
cycle: 22

Station Type Date Time Source
KMIA TAF 2019/12/09 21:18 UTC NOAA

TAF
AMD KMIA 092116Z 0921/1024 11012KT P6SM SCT035
FM100000 11006KT P6SM FEW040 SCT100
FM101500 13013KT P6SM SCT035 SCT100

Example: see airport list